sensor_id;sensor_type;location;lat;lon;timestamp;temperature;humidity
27707;DHT22;36332;51.384;0.040;2023-04-03T00:16:12;5.00;99.90
27707;DHT22;36332;51.384;0.040;2023-04-03T00:30:59;4.80;99.90
27707;DHT22;36332;51.384;0.040;2023-04-03T00:43:24;4.60;99.90
27707;DHT22;36332;51.384;0.040;2023-04-03T00:45:54;4.60;99.90
27707;DHT22;36332;51.384;0.040;2023-04-03T00:48:31;4.60;99.90
27707;DHT22;36332;51.384;0.040;2023-04-03T00:51:01;4.60;99.90
27707;DHT22;36332;51.384;0.040;2023-04-03T00:53:37;4.60;99.90
27707;DHT22;36332;51.384;0.040;2023-04-03T00:56:07;4.60;99.90
27707;DHT22;36332;51.384;0.040;2023-04-03T00:58:51;4.60;99.90
27707;DHT22;36332;51.384;0.040;2023-04-03T01:01:24;4.60;99.90
27707;DHT22;36332;51.384;0.040;2023-04-03T01:06:26;4.60;99.90
27707;DHT22;36332;51.384;0.040;2023-04-03T01:08:59;4.60;99.90
27707;DHT22;36332;51.384;0.040;2023-04-03T01:24:31;4.40;99.90
27707;DHT22;36332;51.384;0.040;2023-04-03T01:31:56;4.40;99.90
27707;DHT22;36332;51.384;0.040;2023-04-03T01:39:21;4.30;99.90
27707;DHT22;36332;51.384;0.040;2023-04-03T02:04:13;4.10;99.90
27707;DHT22;36332;51.384;0.040;2023-04-03T02:06:41;4.10;99.90
27707;DHT22;36332;51.384;0.040;2023-04-03T02:21:30;3.90;99.90
27707;DHT22;36332;51.384;0.040;2023-04-03T03:01:11;3.10;99.90
27707;DHT22;36332;51.384;0.040;2023-04-03T03:06:10;3.10;99.90
27707;DHT22;36332;51.384;0.040;2023-04-03T03:08:40;3.10;99.90
27707;DHT22;36332;51.384;0.040;2023-04-03T03:13:36;3.00;99.90
27707;DHT22;36332;51.384;0.040;2023-04-03T03:16:04;2.90;99.90
27707;DHT22;36332;51.384;0.040;2023-04-03T03:18:33;2.90;99.90
27707;DHT22;36332;51.384;0.040;2023-04-03T03:21:02;2.80;99.90
27707;DHT22;36332;51.384;0.040;2023-04-03T03:23:31;2.70;99.90
27707;DHT22;36332;51.384;0.040;2023-04-03T03:26:03;2.70;99.90
27707;DHT22;36332;51.384;0.040;2023-04-03T03:28:31;2.70;99.90
27707;DHT22;36332;51.384;0.040;2023-04-03T03:31:00;2.70;99.90
27707;DHT22;36332;51.384;0.040;2023-04-03T03:33:29;2.70;99.90
27707;DHT22;36332;51.384;0.040;2023-04-03T03:38:25;2.60;99.90
27707;DHT22;36332;51.384;0.040;2023-04-03T03:45:53;2.50;99.90
27707;DHT22;36332;51.384;0.040;2023-04-03T03:48:23;2.50;99.90
27707;DHT22;36332;51.384;0.040;2023-04-03T04:00:52;2.50;99.90
27707;DHT22;36332;51.384;0.040;2023-04-03T04:20:45;2.90;99.90
27707;DHT22;36332;51.384;0.040;2023-04-03T04:25:44;2.80;99.90
27707;DHT22;36332;51.384;0.040;2023-04-03T04:48:02;2.80;99.90
27707;DHT22;36332;51.384;0.040;2023-04-03T05:22:42;3.30;99.90
27707;DHT22;36332;51.384;0.040;2023-04-03T05:25:10;3.40;99.90
27707;DHT22;36332;51.384;0.040;2023-04-03T05:32:39;3.40;99.90
27707;DHT22;36332;51.384;0.040;2023-04-03T05:52:51;3.60;99.90
27707;DHT22;36332;51.384;0.040;2023-04-03T05:55:20;3.70;99.90
27707;DHT22;36332;51.384;0.040;2023-04-03T06:07:51;4.00;99.90
27707;DHT22;36332;51.384;0.040;2023-04-03T06:10:19;4.10;99.90
27707;DHT22;36332;51.384;0.040;2023-04-03T06:15:15;4.10;99.90
27707;DHT22;36332;51.384;0.040;2023-04-03T06:30:07;4.50;99.90
27707;DHT22;36332;51.384;0.040;2023-04-03T06:35:04;4.40;99.90
27707;DHT22;36332;51.384;0.040;2023-04-03T06:40:00;4.50;99.90
27707;DHT22;36332;51.384;0.040;2023-04-03T06:45:06;4.60;99.90
27707;DHT22;36332;51.384;0.040;2023-04-03T06:52:31;4.80;99.90
27707;DHT22;36332;51.384;0.040;2023-04-03T07:09:47;5.70;99.90
27707;DHT22;36332;51.384;0.040;2023-04-03T07:22:07;5.70;99.90
27707;DHT22;36332;51.384;0.040;2023-04-03T07:44:19;7.10;99.90
27707;DHT22;36332;51.384;0.040;2023-04-03T07:46:47;7.20;99.90
27707;DHT22;36332;51.384;0.040;2023-04-03T07:51:45;7.40;99.90
27707;DHT22;36332;51.384;0.040;2023-04-03T07:54:12;7.50;99.90
27707;DHT22;36332;51.384;0.040;2023-04-03T07:59:09;7.60;99.90
27707;DHT22;36332;51.384;0.040;2023-04-03T08:09:14;8.00;99.90
27707;DHT22;36332;51.384;0.040;2023-04-03T08:14:12;8.00;99.90
27707;DHT22;36332;51.384;0.040;2023-04-03T08:16:46;8.30;99.90
27707;DHT22;36332;51.384;0.040;2023-04-03T08:19:14;8.40;99.90
27707;DHT22;36332;51.384;0.040;2023-04-03T08:21:54;8.40;99.90
27707;DHT22;36332;51.384;0.040;2023-04-03T08:26:50;8.80;99.90
27707;DHT22;36332;51.384;0.040;2023-04-03T08:39:10;9.70;99.90
27707;DHT22;36332;51.384;0.040;2023-04-03T08:41:42;9.80;99.90
27707;DHT22;36332;51.384;0.040;2023-04-03T08:47:18;10.00;99.90
27707;DHT22;36332;51.384;0.040;2023-04-03T08:49:56;10.20;99.90
27707;DHT22;36332;51.384;0.040;2023-04-03T08:55:33;10.60;99.90
27707;DHT22;36332;51.384;0.040;2023-04-03T08:58:12;10.80;99.90
27707;DHT22;36332;51.384;0.040;2023-04-03T09:01:02;10.80;99.90
27707;DHT22;36332;51.384;0.040;2023-04-03T09:03:34;10.90;99.90
27707;DHT22;36332;51.384;0.040;2023-04-03T09:06:13;11.00;99.90
27707;DHT22;36332;51.384;0.040;2023-04-03T09:09:04;11.10;99.90
27707;DHT22;36332;51.384;0.040;2023-04-03T09:14:44;11.20;99.90
27707;DHT22;36332;51.384;0.040;2023-04-03T09:20:46;11.40;99.90
27707;DHT22;36332;51.384;0.040;2023-04-03T09:23:21;11.60;99.90
27707;DHT22;36332;51.384;0.040;2023-04-03T09:25:54;11.60;99.90
27707;DHT22;36332;51.384;0.040;2023-04-03T09:28:23;11.70;99.90
27707;DHT22;36332;51.384;0.040;2023-04-03T09:30:52;11.70;99.90
27707;DHT22;36332;51.384;0.040;2023-04-03T09:33:21;11.70;99.90
27707;DHT22;36332;51.384;0.040;2023-04-03T09:35:50;11.60;99.90
27707;DHT22;36332;51.384;0.040;2023-04-03T09:38:21;11.60;99.90
27707;DHT22;36332;51.384;0.040;2023-04-03T09:43:31;12.00;99.90
27707;DHT22;36332;51.384;0.040;2023-04-03T09:46:32;12.00;99.90
27707;DHT22;36332;51.384;0.040;2023-04-03T09:49:03;12.00;99.90
27707;DHT22;36332;51.384;0.040;2023-04-03T09:51:37;12.00;99.90
27707;DHT22;36332;51.384;0.040;2023-04-03T09:54:31;12.10;99.90
27707;DHT22;36332;51.384;0.040;2023-04-03T09:57:11;12.10;99.90
27707;DHT22;36332;51.384;0.040;2023-04-03T09:59:46;12.20;99.90
27707;DHT22;36332;51.384;0.040;2023-04-03T10:05:00;12.30;99.90
27707;DHT22;36332;51.384;0.040;2023-04-03T10:07:36;12.30;99.90
27707;DHT22;36332;51.384;0.040;2023-04-03T10:10:21;12.40;99.90
27707;DHT22;36332;51.384;0.040;2023-04-03T10:13:13;12.60;99.90
27707;DHT22;36332;51.384;0.040;2023-04-03T10:15:57;12.70;99.90
27707;DHT22;36332;51.384;0.040;2023-04-03T10:18:32;12.70;99.90
27707;DHT22;36332;51.384;0.040;2023-04-03T10:21:10;12.70;99.90
27707;DHT22;36332;51.384;0.040;2023-04-03T10:24:10;12.60;99.90
27707;DHT22;36332;51.384;0.040;2023-04-03T10:30:04;12.50;99.90
27707;DHT22;36332;51.384;0.040;2023-04-03T10:35:28;12.40;99.90
27707;DHT22;36332;51.384;0.040;2023-04-03T10:43:33;12.80;99.90
27707;DHT22;36332;51.384;0.040;2023-04-03T10:51:48;12.80;99.90
27707;DHT22;36332;51.384;0.040;2023-04-03T10:57:01;12.90;99.90
27707;DHT22;36332;51.384;0.040;2023-04-03T10:59:48;13.00;99.90
27707;DHT22;36332;51.384;0.040;2023-04-03T11:02:29;13.10;99.90
27707;DHT22;36332;51.384;0.040;2023-04-03T11:05:02;13.20;99.90
27707;DHT22;36332;51.384;0.040;2023-04-03T11:07:42;13.60;99.90
27707;DHT22;36332;51.384;0.040;2023-04-03T11:10:36;13.70;99.90
27707;DHT22;36332;51.384;0.040;2023-04-03T11:15:44;13.90;99.90
27707;DHT22;36332;51.384;0.040;2023-04-03T11:18:19;13.90;99.90
27707;DHT22;36332;51.384;0.040;2023-04-03T11:21:00;13.80;99.90
27707;DHT22;36332;51.384;0.040;2023-04-03T11:23:36;13.90;99.90
27707;DHT22;36332;51.384;0.040;2023-04-03T11:26:22;14.00;99.90
27707;DHT22;36332;51.384;0.040;2023-04-03T11:28:53;13.90;99.90
27707;DHT22;36332;51.384;0.040;2023-04-03T11:31:56;14.40;99.90
27707;DHT22;36332;51.384;0.040;2023-04-03T11:37:16;14.60;99.90
27707;DHT22;36332;51.384;0.040;2023-04-03T11:39:55;14.60;99.90
27707;DHT22;36332;51.384;0.040;2023-04-03T11:42:38;14.70;99.90
27707;DHT22;36332;51.384;0.040;2023-04-03T11:47:53;14.80;99.90
27707;DHT22;36332;51.384;0.040;2023-04-03T11:58:27;15.40;99.90
27707;DHT22;36332;51.384;0.040;2023-04-03T12:01:02;15.90;99.90
27707;DHT22;36332;51.384;0.040;2023-04-03T12:03:56;15.90;99.90
27707;DHT22;36332;51.384;0.040;2023-04-03T12:14:54;16.40;99.90
27707;DHT22;36332;51.384;0.040;2023-04-03T12:17:25;16.50;99.90
27707;DHT22;36332;51.384;0.040;2023-04-03T12:19:54;16.90;99.90
27707;DHT22;36332;51.384;0.040;2023-04-03T12:22:22;17.30;99.90
27707;DHT22;36332;51.384;0.040;2023-04-03T12:24:52;17.70;99.90
27707;DHT22;36332;51.384;0.040;2023-04-03T12:27:33;17.70;99.90
27707;DHT22;36332;51.384;0.040;2023-04-03T12:30:07;18.10;99.90
27707;DHT22;36332;51.384;0.040;2023-04-03T12:33:03;18.40;99.90
27707;DHT22;36332;51.384;0.040;2023-04-03T12:41:38;19.50;99.90
27707;DHT22;36332;51.384;0.040;2023-04-03T12:46:54;19.90;97.90
27707;DHT22;36332;51.384;0.040;2023-04-03T12:49:51;20.00;96.10
27707;DHT22;36332;51.384;0.040;2023-04-03T12:52:41;20.70;95.80
27707;DHT22;36332;51.384;0.040;2023-04-03T12:55:28;20.40;95.20
27707;DHT22;36332;51.384;0.040;2023-04-03T12:57:55;21.10;94.20
27707;DHT22;36332;51.384;0.040;2023-04-03T13:00:28;21.10;95.00
27707;DHT22;36332;51.384;0.040;2023-04-03T13:02:56;21.40;90.80
27707;DHT22;36332;51.384;0.040;2023-04-03T13:05:25;21.50;88.60
27707;DHT22;36332;51.384;0.040;2023-04-03T13:08:03;21.50;91.70
27707;DHT22;36332;51.384;0.040;2023-04-03T13:10:32;21.50;89.10
27707;DHT22;36332;51.384;0.040;2023-04-03T13:13:08;21.50;88.00
27707;DHT22;36332;51.384;0.040;2023-04-03T13:15:43;21.50;85.60
27707;DHT22;36332;51.384;0.040;2023-04-03T13:21:01;21.70;85.00
27707;DHT22;36332;51.384;0.040;2023-04-03T13:23:29;21.90;86.40
27707;DHT22;36332;51.384;0.040;2023-04-03T13:25:59;22.10;84.70
27707;DHT22;36332;51.384;0.040;2023-04-03T13:28:32;22.80;77.50
27707;DHT22;36332;51.384;0.040;2023-04-03T13:33:34;23.20;78.30
27707;DHT22;36332;51.384;0.040;2023-04-03T13:36:16;23.20;79.30
27707;DHT22;36332;51.384;0.040;2023-04-03T13:38:44;23.40;77.70
27707;DHT22;36332;51.384;0.040;2023-04-03T13:41:32;23.60;76.30
27707;DHT22;36332;51.384;0.040;2023-04-03T13:44:38;23.70;73.10
27707;DHT22;36332;51.384;0.040;2023-04-03T13:47:20;23.80;71.10
27707;DHT22;36332;51.384;0.040;2023-04-03T13:50:01;24.00;69.70
27707;DHT22;36332;51.384;0.040;2023-04-03T13:52:33;24.00;70.20
27707;DHT22;36332;51.384;0.040;2023-04-03T13:58:02;24.50;67.60
27707;DHT22;36332;51.384;0.040;2023-04-03T14:00:38;24.90;63.50
27707;DHT22;36332;51.384;0.040;2023-04-03T14:03:26;24.90;65.50
27707;DHT22;36332;51.384;0.040;2023-04-03T14:05:55;25.00;64.50
27707;DHT22;36332;51.384;0.040;2023-04-03T14:08:23;25.00;65.00
27707;DHT22;36332;51.384;0.040;2023-04-03T14:11:20;24.90;62.80
27707;DHT22;36332;51.384;0.040;2023-04-03T14:13:50;24.90;64.60
27707;DHT22;36332;51.384;0.040;2023-04-03T14:16:20;24.80;62.20
27707;DHT22;36332;51.384;0.040;2023-04-03T14:18:49;24.80;64.30
27707;DHT22;36332;51.384;0.040;2023-04-03T14:21:19;24.90;64.20
27707;DHT22;36332;51.384;0.040;2023-04-03T14:23:49;24.70;64.20
27707;DHT22;36332;51.384;0.040;2023-04-03T14:26:20;24.50;62.70
27707;DHT22;36332;51.384;0.040;2023-04-03T14:28:51;24.30;61.60
27707;DHT22;36332;51.384;0.040;2023-04-03T14:31:19;24.20;63.20
27707;DHT22;36332;51.384;0.040;2023-04-03T14:33:48;24.20;64.20
27707;DHT22;36332;51.384;0.040;2023-04-03T14:36:27;24.40;64.50
27707;DHT22;36332;51.384;0.040;2023-04-03T14:38:55;25.00;61.80
27707;DHT22;36332;51.384;0.040;2023-04-03T14:41:25;25.00;62.70
27707;DHT22;36332;51.384;0.040;2023-04-03T14:43:53;25.20;61.00
27707;DHT22;36332;51.384;0.040;2023-04-03T14:46:28;25.40;59.60
27707;DHT22;36332;51.384;0.040;2023-04-03T14:49:19;25.50;61.50
27707;DHT22;36332;51.384;0.040;2023-04-03T14:51:47;25.60;59.70
27707;DHT22;36332;51.384;0.040;2023-04-03T14:54:18;25.60;61.30
27707;DHT22;36332;51.384;0.040;2023-04-03T14:56:48;26.00;59.70
27707;DHT22;36332;51.384;0.040;2023-04-03T14:59:15;26.20;59.50
27707;DHT22;36332;51.384;0.040;2023-04-03T15:01:46;26.20;59.50
27707;DHT22;36332;51.384;0.040;2023-04-03T15:04:16;26.30;59.90
27707;DHT22;36332;51.384;0.040;2023-04-03T15:06:46;26.40;59.50
27707;DHT22;36332;51.384;0.040;2023-04-03T15:09:25;26.40;58.30
27707;DHT22;36332;51.384;0.040;2023-04-03T15:11:54;26.30;56.60
27707;DHT22;36332;51.384;0.040;2023-04-03T15:14:23;26.20;58.40
27707;DHT22;36332;51.384;0.040;2023-04-03T15:17:05;26.10;58.00
27707;DHT22;36332;51.384;0.040;2023-04-03T15:19:36;26.10;58.40
27707;DHT22;36332;51.384;0.040;2023-04-03T15:22:05;25.80;57.50
27707;DHT22;36332;51.384;0.040;2023-04-03T15:24:33;25.80;58.60
27707;DHT22;36332;51.384;0.040;2023-04-03T15:27:01;25.90;56.90
27707;DHT22;36332;51.384;0.040;2023-04-03T15:29:28;25.90;55.80
27707;DHT22;36332;51.384;0.040;2023-04-03T15:31:56;25.90;57.50
27707;DHT22;36332;51.384;0.040;2023-04-03T15:34:24;26.20;56.20
27707;DHT22;36332;51.384;0.040;2023-04-03T15:36:51;26.10;56.30
27707;DHT22;36332;51.384;0.040;2023-04-03T15:39:22;26.40;54.60
27707;DHT22;36332;51.384;0.040;2023-04-03T15:41:50;26.40;55.20
27707;DHT22;36332;51.384;0.040;2023-04-03T15:44:19;26.50;54.50
27707;DHT22;36332;51.384;0.040;2023-04-03T15:46:48;26.40;50.90
27707;DHT22;36332;51.384;0.040;2023-04-03T15:49:20;26.20;52.30
27707;DHT22;36332;51.384;0.040;2023-04-03T15:51:48;25.90;52.10
27707;DHT22;36332;51.384;0.040;2023-04-03T15:54:16;25.90;53.50
27707;DHT22;36332;51.384;0.040;2023-04-03T15:56:44;26.00;53.80
27707;DHT22;36332;51.384;0.040;2023-04-03T15:59:12;26.00;53.60
27707;DHT22;36332;51.384;0.040;2023-04-03T16:01:39;25.80;53.70
27707;DHT22;36332;51.384;0.040;2023-04-03T16:04:08;25.80;52.20
27707;DHT22;36332;51.384;0.040;2023-04-03T16:06:37;25.90;52.90
27707;DHT22;36332;51.384;0.040;2023-04-03T16:09:05;25.70;52.60
27707;DHT22;36332;51.384;0.040;2023-04-03T16:11:34;25.70;53.90
27707;DHT22;36332;51.384;0.040;2023-04-03T16:14:03;25.50;54.40
27707;DHT22;36332;51.384;0.040;2023-04-03T16:16:31;25.60;54.60
27707;DHT22;36332;51.384;0.040;2023-04-03T16:18:58;25.80;53.90
27707;DHT22;36332;51.384;0.040;2023-04-03T16:21:27;25.70;54.30
27707;DHT22;36332;51.384;0.040;2023-04-03T16:23:59;25.90;54.10
27707;DHT22;36332;51.384;0.040;2023-04-03T16:26:27;25.90;53.80
27707;DHT22;36332;51.384;0.040;2023-04-03T16:28:54;25.80;51.80
27707;DHT22;36332;51.384;0.040;2023-04-03T16:31:23;25.70;52.30
27707;DHT22;36332;51.384;0.040;2023-04-03T16:33:51;25.70;53.40
27707;DHT22;36332;51.384;0.040;2023-04-03T16:36:19;25.50;53.60
27707;DHT22;36332;51.384;0.040;2023-04-03T16:38:46;25.30;53.80
27707;DHT22;36332;51.384;0.040;2023-04-03T16:41:14;25.20;54.00
27707;DHT22;36332;51.384;0.040;2023-04-03T16:43:41;25.10;54.50
27707;DHT22;36332;51.384;0.040;2023-04-03T16:46:14;24.80;53.70
27707;DHT22;36332;51.384;0.040;2023-04-03T16:48:41;24.60;54.10
27707;DHT22;36332;51.384;0.040;2023-04-03T16:51:09;24.60;54.60
27707;DHT22;36332;51.384;0.040;2023-04-03T16:53:36;24.50;54.00
27707;DHT22;36332;51.384;0.040;2023-04-03T16:56:04;24.50;53.90
27707;DHT22;36332;51.384;0.040;2023-04-03T16:58:32;24.30;54.20
27707;DHT22;36332;51.384;0.040;2023-04-03T17:01:09;24.20;54.90
27707;DHT22;36332;51.384;0.040;2023-04-03T17:03:37;23.90;54.20
27707;DHT22;36332;51.384;0.040;2023-04-03T17:06:05;23.70;53.60
27707;DHT22;36332;51.384;0.040;2023-04-03T17:08:34;20.40;52.40
27707;DHT22;36332;51.384;0.040;2023-04-03T17:11:02;23.20;53.70
27707;DHT22;36332;51.384;0.040;2023-04-03T17:13:29;22.80;54.50
27707;DHT22;36332;51.384;0.040;2023-04-03T17:15:59;22.00;55.50
27707;DHT22;36332;51.384;0.040;2023-04-03T17:18:30;21.10;56.20
27707;DHT22;36332;51.384;0.040;2023-04-03T17:23:27;19.30;58.30
27707;DHT22;36332;51.384;0.040;2023-04-03T17:25:57;18.50;59.70
27707;DHT22;36332;51.384;0.040;2023-04-03T17:30:56;12.20;61.00
27707;DHT22;36332;51.384;0.040;2023-04-03T17:33:26;15.90;65.10
27707;DHT22;36332;51.384;0.040;2023-04-03T17:35:59;15.20;67.80
27707;DHT22;36332;51.384;0.040;2023-04-03T17:38:30;14.50;68.80
27707;DHT22;36332;51.384;0.040;2023-04-03T17:41:00;13.90;69.80
27707;DHT22;36332;51.384;0.040;2023-04-03T17:43:28;13.40;71.80
27707;DHT22;36332;51.384;0.040;2023-04-03T17:46:04;13.10;74.00
27707;DHT22;36332;51.384;0.040;2023-04-03T17:48:33;12.50;74.80
27707;DHT22;36332;51.384;0.040;2023-04-03T17:51:09;12.30;76.00
27707;DHT22;36332;51.384;0.040;2023-04-03T17:53:37;11.90;77.20
27707;DHT22;36332;51.384;0.040;2023-04-03T17:56:09;11.70;77.90
27707;DHT22;36332;51.384;0.040;2023-04-03T18:01:10;11.20;79.50
27707;DHT22;36332;51.384;0.040;2023-04-03T18:03:39;10.80;79.90
27707;DHT22;36332;51.384;0.040;2023-04-03T18:06:09;10.80;80.80
27707;DHT22;36332;51.384;0.040;2023-04-03T18:08:41;10.70;82.00
27707;DHT22;36332;51.384;0.040;2023-04-03T18:16:07;10.10;83.40
27707;DHT22;36332;51.384;0.040;2023-04-03T18:18:36;10.10;86.30
27707;DHT22;36332;51.384;0.040;2023-04-03T18:21:04;9.90;87.10
27707;DHT22;36332;51.384;0.040;2023-04-03T18:23:34;9.80;86.80
27707;DHT22;36332;51.384;0.040;2023-04-03T18:26:02;9.70;88.70
27707;DHT22;36332;51.384;0.040;2023-04-03T18:30:59;9.50;88.70
27707;DHT22;36332;51.384;0.040;2023-04-03T18:38:23;9.30;89.80
27707;DHT22;36332;51.384;0.040;2023-04-03T18:40:51;9.20;90.10
27707;DHT22;36332;51.384;0.040;2023-04-03T18:50:43;8.90;91.00
27707;DHT22;36332;51.384;0.040;2023-04-03T18:58:07;8.70;91.90
27707;DHT22;36332;51.384;0.040;2023-04-03T19:00:37;8.70;92.10
27707;DHT22;36332;51.384;0.040;2023-04-03T19:10:29;8.40;92.90
27707;DHT22;36332;51.384;0.040;2023-04-03T19:15:25;8.30;93.20
27707;DHT22;36332;51.384;0.040;2023-04-03T19:22:49;8.20;94.00
27707;DHT22;36332;51.384;0.040;2023-04-03T19:27:46;8.10;94.60
27707;DHT22;36332;51.384;0.040;2023-04-03T19:30:14;8.10;94.80
27707;DHT22;36332;51.384;0.040;2023-04-03T19:35:10;8.00;95.00
27707;DHT22;36332;51.384;0.040;2023-04-03T19:40:06;7.90;95.60
27707;DHT22;36332;51.384;0.040;2023-04-03T19:45:07;7.80;96.00
27707;DHT22;36332;51.384;0.040;2023-04-03T19:50:03;7.80;96.30
27707;DHT22;36332;51.384;0.040;2023-04-03T20:07:18;7.50;98.40
27707;DHT22;36332;51.384;0.040;2023-04-03T20:12:13;7.50;98.80
27707;DHT22;36332;51.384;0.040;2023-04-03T20:49:21;7.00;99.90
27707;DHT22;36332;51.384;0.040;2023-04-03T20:51:49;6.90;99.90
27707;DHT22;36332;51.384;0.040;2023-04-03T21:04:19;6.70;99.90
27707;DHT22;36332;51.384;0.040;2023-04-03T21:23:31;6.40;99.90
27707;DHT22;36332;51.384;0.040;2023-04-03T21:25:59;6.30;99.90
27707;DHT22;36332;51.384;0.040;2023-04-03T21:28:27;6.20;99.90
27707;DHT22;36332;51.384;0.040;2023-04-03T21:35:50;6.00;99.90
27707;DHT22;36332;51.384;0.040;2023-04-03T21:38:24;6.00;99.90
27707;DHT22;36332;51.384;0.040;2023-04-03T21:40:55;5.90;99.90
27707;DHT22;36332;51.384;0.040;2023-04-03T21:45:56;4.60;99.90
27707;DHT22;36332;51.384;0.040;2023-04-03T21:48:25;5.70;99.90
27707;DHT22;36332;51.384;0.040;2023-04-03T21:51:01;5.60;99.90
27707;DHT22;36332;51.384;0.040;2023-04-03T21:55:57;5.50;99.90
27707;DHT22;36332;51.384;0.040;2023-04-03T21:58:31;5.40;99.90
27707;DHT22;36332;51.384;0.040;2023-04-03T22:01:13;5.30;99.90
27707;DHT22;36332;51.384;0.040;2023-04-03T22:03:42;5.30;99.90
27707;DHT22;36332;51.384;0.040;2023-04-03T22:06:12;5.30;99.90
27707;DHT22;36332;51.384;0.040;2023-04-03T22:11:08;5.20;99.90
27707;DHT22;36332;51.384;0.040;2023-04-03T22:13:37;5.20;99.90
27707;DHT22;36332;51.384;0.040;2023-04-03T22:16:05;5.10;99.90
27707;DHT22;36332;51.384;0.040;2023-04-03T22:18:34;5.10;99.90
27707;DHT22;36332;51.384;0.040;2023-04-03T22:28:30;4.90;99.90
27707;DHT22;36332;51.384;0.040;2023-04-03T22:31:06;4.90;99.90
27707;DHT22;36332;51.384;0.040;2023-04-03T22:33:34;4.90;99.90
27707;DHT22;36332;51.384;0.040;2023-04-03T22:36:06;4.80;99.90
27707;DHT22;36332;51.384;0.040;2023-04-03T22:38:35;4.80;99.90
27707;DHT22;36332;51.384;0.040;2023-04-03T22:41:05;4.80;99.90
27707;DHT22;36332;51.384;0.040;2023-04-03T22:43:34;4.70;99.90
27707;DHT22;36332;51.384;0.040;2023-04-03T22:46:04;4.70;99.90
27707;DHT22;36332;51.384;0.040;2023-04-03T22:48:31;4.60;99.90
27707;DHT22;36332;51.384;0.040;2023-04-03T22:51:00;4.60;99.90
27707;DHT22;36332;51.384;0.040;2023-04-03T22:53:34;4.60;99.90
27707;DHT22;36332;51.384;0.040;2023-04-03T22:56:03;4.60;99.90
27707;DHT22;36332;51.384;0.040;2023-04-03T22:58:31;4.60;99.90
27707;DHT22;36332;51.384;0.040;2023-04-03T23:01:05;4.50;99.90
27707;DHT22;36332;51.384;0.040;2023-04-03T23:03:34;4.50;99.90
27707;DHT22;36332;51.384;0.040;2023-04-03T23:06:04;4.50;99.90
27707;DHT22;36332;51.384;0.040;2023-04-03T23:08:32;4.40;99.90
27707;DHT22;36332;51.384;0.040;2023-04-03T23:11:01;4.40;99.90
27707;DHT22;36332;51.384;0.040;2023-04-03T23:15:59;4.30;99.90
27707;DHT22;36332;51.384;0.040;2023-04-03T23:18:29;4.30;99.90
27707;DHT22;36332;51.384;0.040;2023-04-03T23:21:00;4.30;99.90
27707;DHT22;36332;51.384;0.040;2023-04-03T23:23:30;4.20;99.90
27707;DHT22;36332;51.384;0.040;2023-04-03T23:26:00;4.20;99.90
27707;DHT22;36332;51.384;0.040;2023-04-03T23:28:28;4.10;99.90
27707;DHT22;36332;51.384;0.040;2023-04-03T23:31:05;4.20;99.90
27707;DHT22;36332;51.384;0.040;2023-04-03T23:33:35;4.10;99.90
27707;DHT22;36332;51.384;0.040;2023-04-03T23:36:07;4.10;99.90
27707;DHT22;36332;51.384;0.040;2023-04-03T23:38:35;4.10;99.90
27707;DHT22;36332;51.384;0.040;2023-04-03T23:48:27;3.90;99.90
27707;DHT22;36332;51.384;0.040;2023-04-03T23:53:22;3.80;99.90
